PATC/TNC METAR and TAF weather

Enter ICAO airport designator
Station Type Date Time Source
PATC METAR 2021/10/20 05:55 UTC NOAA

PATC 200555Z AUTO 07005KT 10SM OVC016 00/M02 A2898 RMK AO2 SNB0507E0529RAB0529E0544 SLP818 T10051021 11006 21016 52009


Station Type Date Time Source
PATC Decoded METAR 2021/10/20 05:55 UTC NOAA

Tin City Airways Facilities Sector, AK, United States (PATC) 65-34N 167-55W
Oct 20, 2021 - 01:55 AM EDT / 2021.10.20 0555 UTC
Wind: from the ENE (070 degrees) at 6 MPH (5 KT):0
Visibility: 10 mile(s):0
Sky conditions: overcast
Temperature: 31.1 F (-0.5 C)
Windchill: 24 F (-4 C):1
Dew Point: 28.2 F (-2.1 C)
Relative Humidity: 88%
Pressure (altimeter): 28.98 in. Hg (981 hPa)
Pressure tendency: 0.03 inches (0.9 hPa) higher than three hours ago
ob: PATC 200555Z AUTO 07005KT 10SM OVC016 00/M02 A2898 RMK AO2 SNB0507E0529RAB0529E0544 SLP818 T10051021 11006 21016 52009
cycle: 6

Station Type Date Time Source
PATC TAF 2016/08/27 04:12 UTC NOAA

TAF PATC 270400Z 2704/2810 18012G18KT 0400 FG OVC002 QNH3015INS TX10/2718Z TN06/2710Z

Example: see airport list